createdAt,value
2018-09-09T00:02:16.431Z,95361.22
2018-09-09T00:04:46.372Z,95367.19
2018-09-09T00:07:16.721Z,95357.33
2018-09-09T00:09:48.082Z,95365.70
2018-09-09T00:12:18.357Z,95362.31
2018-09-09T00:14:47.786Z,95363.48
2018-09-09T00:17:17.397Z,95360.89
2018-09-09T00:37:09.282Z,95360.86
2018-09-09T00:57:00.749Z,95377.86
2018-09-09T00:59:30.595Z,95381.55
2018-09-09T01:02:00.237Z,95374.85
2018-09-09T01:04:29.576Z,95369.63
2018-09-09T01:06:59.593Z,95368.30
2018-09-09T01:09:34.525Z,95369.63
2018-09-09T01:12:05.217Z,95365.13
2018-09-09T01:31:56.425Z,95363.59
2018-09-09T01:34:26.171Z,95362.45
2018-09-09T01:36:55.639Z,95362.48
2018-09-09T01:39:25.160Z,95376.54
2018-09-09T01:59:17.430Z,95373.42
2018-09-09T02:01:47.228Z,95365.71
2018-09-09T02:21:39.837Z,95368.41
2018-09-09T02:24:09.496Z,95380.33
2018-09-09T02:26:39.052Z,95371.35
2018-09-09T02:46:31.021Z,95370.93
2018-09-09T02:49:00.570Z,95377.89
2018-09-09T02:51:30.598Z,95383.66
2018-09-09T02:54:00.658Z,95377.38
2018-09-09T02:56:30.502Z,95376.58
2018-09-09T02:58:59.929Z,95383.03
2018-09-09T03:01:29.849Z,95386.66
2018-09-09T03:03:59.667Z,95389.42
2018-09-09T03:06:29.155Z,95382.01
2018-09-09T03:08:58.879Z,95376.79
2018-09-09T03:11:28.662Z,95380.75
2018-09-09T03:13:58.400Z,95379.45
2018-09-09T03:16:28.014Z,95374.37
2018-09-09T03:39:13.561Z,95393.36
2018-09-09T03:41:42.998Z,95383.41
2018-09-09T03:44:12.433Z,95389.96
2018-09-09T03:46:42.220Z,95393.62
2018-09-09T04:06:35.013Z,95403.35
2018-09-09T04:09:05.747Z,95413.60
2018-09-09T04:11:35.681Z,95408.89
2018-09-09T04:31:28.246Z,95424.41
2018-09-09T04:33:57.720Z,95425.38
2018-09-09T04:53:50.041Z,95441.02
2018-09-09T04:56:19.612Z,95439.47
2018-09-09T04:58:49.122Z,95450.05
2018-09-09T05:01:18.937Z,95444.42
2018-09-09T05:03:48.636Z,95445.20
2018-09-09T05:06:18.207Z,95445.48
2018-09-09T05:08:48.176Z,95454.31
2018-09-09T05:11:17.869Z,95447.43
2018-09-09T05:31:09.949Z,95467.00
2018-09-09T05:33:40.175Z,95467.22
2018-09-09T05:36:09.759Z,95474.59
2018-09-09T05:38:39.818Z,95474.58
2018-09-09T05:41:09.579Z,95468.11
2018-09-09T05:43:38.971Z,95467.61
2018-09-09T05:46:09.059Z,95466.81
2018-09-09T05:48:38.714Z,95468.57
2018-09-09T05:51:08.678Z,95468.55
2018-09-09T05:53:38.512Z,95466.05
2018-09-09T05:56:08.193Z,95461.55
2018-09-09T05:58:37.658Z,95460.06
2018-09-09T06:01:07.505Z,95460.17
2018-09-09T06:03:37.075Z,95463.53
2018-09-09T06:06:07.032Z,95463.27
2018-09-09T06:08:36.978Z,95470.38
2018-09-09T06:11:06.839Z,95461.84
2018-09-09T06:13:36.329Z,95463.22
2018-09-09T06:16:06.344Z,95464.59
2018-09-09T06:18:35.813Z,95466.34
2018-09-09T06:21:05.233Z,95468.52
2018-09-09T06:23:35.414Z,95469.97
2018-09-09T06:26:04.989Z,95471.06
2018-09-09T06:28:34.620Z,95470.27
2018-09-09T06:31:04.503Z,95482.22
2018-09-09T06:33:34.239Z,95475.36
2018-09-09T06:53:26.799Z,95489.80
2018-09-09T06:55:56.148Z,95487.56
2018-09-09T06:58:25.697Z,95479.61
2018-09-09T07:00:55.386Z,95485.02
2018-09-09T07:03:25.013Z,95490.94
2018-09-09T07:05:54.470Z,95479.12
2018-09-09T07:08:24.488Z,95483.56
2018-09-09T07:10:54.088Z,95488.39
2018-09-09T07:13:23.958Z,95492.02
2018-09-09T07:15:53.826Z,95480.30
2018-09-09T07:18:23.491Z,95479.58
2018-09-09T07:20:53.101Z,95487.61
2018-09-09T07:40:45.381Z,95482.70
2018-09-09T07:43:14.950Z,95482.64
2018-09-09T07:45:45.402Z,95485.45
2018-09-09T07:48:15.152Z,95475.64
2018-09-09T07:50:44.691Z,95477.84
2018-09-09T07:53:14.338Z,95473.44
2018-09-09T07:55:44.297Z,95482.89
2018-09-09T07:58:13.780Z,95473.52
2018-09-09T08:18:05.322Z,95473.06
2018-09-09T08:20:35.700Z,95467.05
2018-09-09T08:23:05.466Z,95466.55
2018-09-09T08:42:56.741Z,95457.36
2018-09-09T08:45:26.274Z,95464.02
2018-09-09T08:47:55.706Z,95464.70
2018-09-09T08:50:25.711Z,95463.64
2018-09-09T09:10:16.383Z,95434.98
2018-09-09T09:12:46.354Z,95436.17
2018-09-09T09:15:16.020Z,95427.67
2018-09-09T09:17:45.885Z,95423.92
2018-09-09T09:20:16.093Z,95410.17
2018-09-09T09:22:45.671Z,95411.64
2018-09-09T09:42:37.647Z,95400.01
2018-09-09T09:45:07.269Z,95397.17
2018-09-09T10:04:59.019Z,95378.33
2018-09-09T10:07:28.736Z,95374.76
2018-09-09T10:09:58.230Z,95366.16
2018-09-09T10:12:27.874Z,95367.69
2018-09-09T10:14:57.276Z,95359.29
2018-09-09T10:17:26.718Z,95356.70
2018-09-09T10:19:56.664Z,95359.48
2018-09-09T10:22:26.362Z,95363.10
2018-09-09T10:24:55.672Z,95359.82
2018-09-09T10:44:46.850Z,95336.65
2018-09-09T10:47:16.471Z,95336.14
2018-09-09T10:49:46.214Z,95337.77
2018-09-09T10:52:16.263Z,95335.53
2018-09-09T10:54:45.937Z,95332.48
2018-09-09T10:57:15.818Z,95332.55
2018-09-09T10:59:45.397Z,95335.69
2018-09-09T11:02:15.085Z,95332.39
2018-09-09T11:04:44.786Z,95318.30
2018-09-09T11:07:14.306Z,95320.84
2018-09-09T11:41:34.526Z,95321.81
2018-09-09T11:44:04.116Z,95322.58
2018-09-09T11:46:33.835Z,95325.98
2018-09-09T11:49:04.377Z,95318.11
2018-09-09T11:51:33.870Z,95321.57
2018-09-09T11:54:03.733Z,95319.46
2018-09-09T11:56:34.059Z,95322.42
2018-09-09T11:59:03.813Z,95342.41
2018-09-09T12:01:33.439Z,95346.22
2018-09-09T12:04:03.467Z,95353.34
2018-09-09T12:06:33.043Z,95345.49
2018-09-09T12:09:02.677Z,95341.16
2018-09-09T12:11:32.715Z,95336.64
2018-09-09T12:14:02.071Z,95332.67
2018-09-09T12:16:31.773Z,95324.02
2018-09-09T12:19:02.338Z,95316.70
2018-09-09T12:21:32.046Z,95306.70
2018-09-09T12:24:01.542Z,95305.99
2018-09-09T12:26:31.385Z,95302.76
2018-09-09T12:29:01.104Z,95297.78
2018-09-09T12:31:30.834Z,95300.05
2018-09-09T12:34:00.722Z,95304.55
2018-09-09T12:36:30.454Z,95296.53
2018-09-09T12:38:59.913Z,95297.33
2018-09-09T12:41:29.854Z,95288.11
2018-09-09T12:44:04.477Z,95287.31
2018-09-09T13:03:56.042Z,95351.58
2018-09-09T13:06:25.482Z,95335.48
2018-09-09T13:26:17.290Z,95312.28
2018-09-09T13:28:46.958Z,95321.34
2018-09-09T13:31:16.557Z,95317.23
2018-09-09T13:33:46.447Z,95319.39
2018-09-09T13:36:16.033Z,95327.86
2018-09-09T13:38:45.896Z,95328.22
2018-09-09T13:41:15.930Z,95342.27
2018-09-09T13:43:45.377Z,95328.83
2018-09-09T13:46:15.039Z,95343.44
2018-09-09T13:48:44.965Z,95333.59
2018-09-09T13:51:14.667Z,95334.66
2018-09-09T14:11:06.504Z,95318.63
2018-09-09T14:13:36.068Z,95323.59
2018-09-09T14:16:05.708Z,95319.52
2018-09-09T14:18:35.870Z,95318.78
2018-09-09T14:21:05.249Z,95316.88
2018-09-09T14:23:34.968Z,95320.52
2018-09-09T14:26:04.889Z,95319.70
2018-09-09T14:45:55.852Z,95315.27
2018-09-09T14:48:25.460Z,95305.34
2018-09-09T14:50:54.934Z,95309.35
2018-09-09T14:53:24.385Z,95303.68
2018-09-09T14:55:54.196Z,95306.22
2018-09-09T14:58:23.956Z,95305.69
2018-09-09T15:00:53.561Z,95300.39
2018-09-09T15:20:45.350Z,95303.31
2018-09-09T15:23:14.915Z,95305.72
2018-09-09T15:25:44.459Z,95313.05
2018-09-09T15:28:14.295Z,95312.89
2018-09-09T15:30:43.742Z,95307.66
2018-09-09T15:33:13.137Z,95298.81
2018-09-09T15:35:42.867Z,95309.00
2018-09-09T15:38:12.681Z,95311.83
2018-09-09T15:58:05.004Z,95318.36
2018-09-09T16:00:34.815Z,95318.23
2018-09-09T16:03:04.587Z,95319.78
2018-09-09T16:05:34.489Z,95320.25
2018-09-09T16:25:26.126Z,95343.14
2018-09-09T16:45:18.507Z,95353.70
2018-09-09T17:05:09.735Z,95369.05
2018-09-09T17:07:39.213Z,95369.70
2018-09-09T17:10:08.721Z,95372.84
2018-09-09T17:12:38.291Z,95377.25
2018-09-09T17:32:30.856Z,95392.09
2018-09-09T17:35:00.326Z,95403.00
2018-09-09T17:37:29.798Z,95404.81
2018-09-09T17:57:22.536Z,95436.73
2018-09-09T17:59:51.972Z,95433.19
2018-09-09T18:02:21.796Z,95441.68
2018-09-09T18:04:51.613Z,95441.64
2018-09-09T18:07:21.028Z,95450.31
2018-09-09T18:09:50.893Z,95447.09
2018-09-09T18:12:20.708Z,95451.69
2018-09-09T18:32:13.101Z,95469.42
2018-09-09T18:34:42.766Z,95472.42
2018-09-09T18:37:12.516Z,95483.42
2018-09-09T18:39:42.139Z,95477.00
2018-09-09T18:42:11.925Z,95475.38
2018-09-09T18:44:41.476Z,95481.19
2018-09-09T18:47:11.061Z,95483.61
2018-09-09T18:49:41.094Z,95482.72
2018-09-09T18:52:10.881Z,95483.38
2018-09-09T18:54:40.513Z,95480.90
2018-09-09T18:57:10.517Z,95476.02
2018-09-09T18:59:40.115Z,95475.03
2018-09-09T19:02:09.860Z,95478.19
2018-09-09T19:04:39.948Z,95484.23
2018-09-09T19:42:16.750Z,95502.06
2018-09-09T19:44:46.907Z,95500.14
2018-09-09T20:04:38.356Z,95500.43
2018-09-09T20:07:07.942Z,95498.16
2018-09-09T20:09:37.512Z,95501.61
2018-09-09T20:12:06.973Z,95491.34
2018-09-09T20:14:37.000Z,95490.55
2018-09-09T20:17:06.687Z,95494.09
2018-09-09T20:19:36.478Z,95495.13
2018-09-09T20:22:08.939Z,95495.00
2018-09-09T20:24:38.583Z,95496.27
2018-09-09T20:27:08.290Z,95496.53
2018-09-09T20:29:38.386Z,95494.38
2018-09-09T20:32:07.875Z,95493.67
2018-09-09T20:34:37.540Z,95502.80
2018-09-09T20:37:07.262Z,95510.52
2018-09-09T20:39:36.752Z,95504.52
2018-09-09T20:45:00.557Z,95503.48
2018-09-09T20:47:30.374Z,95505.92
2018-09-09T20:50:00.081Z,95507.25
2018-09-09T20:52:29.791Z,95510.48
2018-09-09T20:54:59.579Z,95503.08
2018-09-09T20:57:29.644Z,95502.58
2018-09-09T20:59:59.103Z,95508.73
2018-09-09T21:02:29.326Z,95507.35
2018-09-09T21:04:58.906Z,95507.88
2018-09-09T21:07:28.617Z,95504.70
2018-09-09T21:09:58.674Z,95506.90
2018-09-09T21:12:28.322Z,95507.14
2018-09-09T21:14:57.994Z,95501.48
2018-09-09T21:17:28.080Z,95507.52
2018-09-09T21:19:58.624Z,95504.58
2018-09-09T21:22:28.464Z,95516.30
2018-09-09T21:24:59.082Z,95503.11
2018-09-09T21:27:29.950Z,95504.13
2018-09-09T21:30:00.148Z,95506.78
2018-09-09T21:32:29.805Z,95498.87
2018-09-09T21:35:00.660Z,95504.17
2018-09-09T21:37:30.986Z,95499.67
2018-09-09T21:40:00.767Z,95496.78
2018-09-09T21:42:31.303Z,95500.75
2018-09-09T21:45:01.306Z,95498.70
2018-09-09T21:47:31.092Z,95498.50
2018-09-09T21:50:01.325Z,95495.83
2018-09-09T21:52:30.993Z,95492.97
2018-09-09T21:55:00.830Z,95498.63
2018-09-09T21:57:30.823Z,95500.58
2018-09-09T22:00:02.036Z,95501.73
2018-09-09T22:02:31.810Z,95501.97
2018-09-09T22:05:01.520Z,95497.48
2018-09-09T22:07:31.190Z,95502.86
2018-09-09T22:10:00.645Z,95501.30
2018-09-09T22:12:30.542Z,95495.66
2018-09-09T22:15:00.293Z,95502.89
2018-09-09T22:17:29.837Z,95497.09
2018-09-09T22:19:59.780Z,95492.36
2018-09-09T22:22:29.995Z,95489.72
2018-09-09T22:24:59.793Z,95489.65
2018-09-09T22:27:29.237Z,95489.65
2018-09-09T22:29:59.551Z,95482.31
2018-09-09T22:32:29.154Z,95487.68
2018-09-09T22:34:58.890Z,95485.61
2018-09-09T22:37:29.003Z,95481.94
2018-09-09T22:39:58.709Z,95483.55
2018-09-09T22:42:28.400Z,95491.52
2018-09-09T22:44:58.257Z,95488.66
2018-09-09T22:47:28.030Z,95489.17
2018-09-09T22:49:57.547Z,95494.53
2018-09-09T22:52:27.797Z,95484.97
2018-09-09T22:54:58.306Z,95491.66
2018-09-09T22:57:28.115Z,95483.13
2018-09-09T22:59:57.507Z,95487.16
2018-09-09T23:02:27.096Z,95487.23
2018-09-09T23:04:56.722Z,95487.76
2018-09-09T23:07:26.902Z,95486.15
2018-09-09T23:09:56.558Z,95471.72
2018-09-09T23:12:26.675Z,95484.88
2018-09-09T23:14:56.625Z,95485.35
2018-09-09T23:17:26.260Z,95486.19
2018-09-09T23:19:55.709Z,95492.09
2018-09-09T23:22:25.653Z,95483.91
2018-09-09T23:24:55.099Z,95480.98
2018-09-09T23:27:25.035Z,95485.45
2018-09-09T23:29:55.144Z,95483.42
2018-09-09T23:32:24.794Z,95482.61
2018-09-09T23:34:54.167Z,95489.97
2018-09-09T23:37:23.802Z,95484.23
2018-09-09T23:39:53.314Z,95480.83
2018-09-09T23:42:23.419Z,95486.17
2018-09-09T23:44:53.304Z,95482.45
2018-09-09T23:47:22.828Z,95487.00
2018-09-09T23:49:52.385Z,95484.13
2018-09-09T23:52:22.149Z,95478.23
2018-09-09T23:54:51.589Z,95478.88
2018-09-09T23:57:21.477Z,95481.45
2018-09-09T23:59:51.805Z,95478.59
